Pagrindinis puslapis
METAR-TAF:

METAR-TAF

Oro uostai :

Kenai, Aliaska, Jungtinės Amerikos Valstijos

platuma: 60-34-23N, ilguma: 151-14-42W, Aukštis: 30 m

Dabartinis oras

Ataskaita buvo paskelbta 1 valandą ir 8 minutes, ne 03:53 UTC
Vėjas 9 kt iš Pietų/Pietvakarių
Temperatūra 11°C
Drėgmė 87%
Slėgis 985 hPa
Matomumas: 16.1 km
Apsiniaukę ne aukštis 6500 ft

METAR: PAEN 210353Z 21009KT 10SM OVC065 11/09 A2908 RMK AO2 SLP850 T01110094

Laikas: 21:01 (05:01 UTC)

Prognozė

Ataskaita buvo paskelbta 5 valandos ir 32 minutes, ne 23:29 UTC
Prognozė galioja nuo 21 metu 00 UTC su 21 metu 24 UTC
Vėjas 9 kt iš Šiaurės Vakarų
Matomumas: 10 km
Išsisklaidę debesys ne aukštis 4500 ft
Su prošvaistėmis ne aukštis 6000 ft
Liūtis kaimynystėje
Nuo 21 metu 0600 UTC
Vėjas 5 kt nuo kintamojo kryptimis
Matomumas: 10 km
Išsisklaidę debesys ne aukštis 6000 ft
Su prošvaistėmis ne aukštis 10000 ft

TAF: PAEN 202329Z 2100/2124 32009KT P6SM VCSH SCT045 BKN060 FM210600 VRB05KT P6SM SCT060 BKN100

Orai ataskaitas ir orų prognozės (METAR, TAF).

turimą stotys yra geltonos ir raudonos taškus žemėlapyje.

Perkelti pele per norėdami pamatyti stoties vardą.

Tada spustelėkite, norėdami matyti oro stebėjimo ir prognozės.

Norėdami pakeisti žemėlapį: spustelėkite ant žalios mygtukų su juodo kryžiaus žemyn,; žalią mygtuką su brūkšneliu, jei norite nutolinti; arba žalių rodyklių gretimoms žemėlapius.


METAR-TAF: